Historique des stations

Station météo de Lys-Saint-Georges

Altitude de la station : 220 m







Données météorologiques pour le 02/12/2021
Date
Heure
Températures Humidité Point de rosée Vitesse
du vent
Direction Rafales Windchill Pression Pluviométrie
Cumul
Date
Heure
Températures Humidité Point de rosée Vitesse
du vent
Direction Rafales Windchill Pression Pluviométrie
Cumul
02/12/2021 17:303.4 °C88 %1.6 °C8 km/hNO15 km/h3.41012 hPa0.8 mm
02/12/2021 17:103.8 °C86 %1.7 °C9 km/hONO19 km/h1.31012 hPa0.8 mm
02/12/2021 17:004.3 °C85 %2.0 °C9 km/hO18 km/h1.71012 hPa0.8 mm
02/12/2021 16:404.4 °C84 %2.0 °C8 km/hONO18 km/h2.11011 hPa0.8 mm
02/12/2021 16:304.6 °C83 %2.0 °C7 km/hONO15 km/h2.41011 hPa0.8 mm
02/12/2021 16:104.7 °C84 %2.2 °C8 km/hO18 km/h2.51011 hPa0.8 mm
02/12/2021 16:004.7 °C83 %2.0 °C7 km/hNO16 km/h4.71011 hPa0.8 mm
02/12/2021 15:404.8 °C80 %1.6 °C8 km/hNNO15 km/h4.81011 hPa0.8 mm
02/12/2021 15:304.8 °C80 %1.7 °C9 km/hNNO19 km/h2.41011 hPa0.8 mm
02/12/2021 15:104.9 °C80 %1.7 °C10 km/hNO15 km/h4.91011 hPa0.8 mm
02/12/2021 15:005.0 °C80 %1.8 °C11 km/hNNO18 km/h3.01011 hPa0.8 mm
02/12/2021 14:404.9 °C79 %1.6 °C12 km/h24 km/h1.71011 hPa0.8 mm
02/12/2021 14:304.9 °C81 %2.0 °C11 km/h23 km/h2.11011 hPa0.8 mm
02/12/2021 14:104.8 °C81 %1.9 °C11 km/hNNO23 km/h2.21011 hPa0.8 mm
02/12/2021 14:004.9 °C81 %1.9 °C10 km/hNNO24 km/h1.91011 hPa0.8 mm
02/12/2021 13:404.8 °C80 %1.6 °C10 km/hNNO19 km/h2.61011 hPa0.8 mm
02/12/2021 13:304.8 °C81 %1.8 °C13 km/h18 km/h2.41011 hPa0.8 mm
02/12/2021 13:104.8 °C81 %1.8 °C14 km/h19 km/h2.21011 hPa0.8 mm
02/12/2021 13:004.8 °C81 %1.9 °C15 km/h24 km/h1.71011 hPa0.8 mm
02/12/2021 12:404.8 °C80 %1.7 °C16 km/h29 km/h1.11011 hPa0.8 mm
02/12/2021 12:304.8 °C82 %2.0 °C15 km/h26 km/h1.31011 hPa0.8 mm
02/12/2021 12:104.8 °C83 %2.1 °C15 km/h27 km/h1.41011 hPa0.8 mm
02/12/2021 12:004.9 °C84 %2.5 °C15 km/h26 km/h1.81011 hPa0.8 mm
02/12/2021 11:404.5 °C86 %2.4 °C15 km/h24 km/h1.21011 hPa0.8 mm
02/12/2021 11:304.4 °C86 %2.3 °C15 km/h27 km/h0.91011 hPa0.8 mm
02/12/2021 11:104.3 °C88 %2.5 °C15 km/h24 km/h0.81011 hPa0.8 mm
02/12/2021 11:004.1 °C89 %2.5 °C14 km/h26 km/h0.31010 hPa0.8 mm
02/12/2021 10:403.9 °C90 %2.5 °C13 km/h24 km/h0.51010 hPa0.8 mm
02/12/2021 10:303.9 °C91 %2.6 °C12 km/h27 km/h0.31010 hPa0.8 mm
02/12/2021 10:103.8 °C92 %2.6 °C11 km/hNNO18 km/h1.21010 hPa0.8 mm
02/12/2021 10:003.4 °C92 %2.3 °C12 km/h23 km/h0.31009 hPa0.8 mm
02/12/2021 09:403.7 °C93 %2.7 °C13 km/h21 km/h0.31009 hPa0.8 mm
02/12/2021 09:303.8 °C94 %3.0 °C13 km/h21 km/h0.81009 hPa0.8 mm
02/12/2021 09:103.9 °C96 %3.4 °C13 km/h24 km/h0.81009 hPa0.8 mm
02/12/2021 09:003.9 °C96 %3.4 °C12 km/h26 km/h0.71008 hPa0.8 mm
02/12/2021 08:403.8 °C96 %3.2 °C10 km/h21 km/h0.51008 hPa0.8 mm
02/12/2021 08:303.7 °C97 %3.3 °C9 km/h23 km/h0.31008 hPa0.6 mm
02/12/2021 08:103.7 °C97 %3.2 °C7 km/hNNO16 km/h1.31008 hPa0.6 mm
02/12/2021 08:003.6 °C97 %3.2 °C6 km/hNNO13 km/h3.61007 hPa0.6 mm
02/12/2021 07:403.6 °C97 %3.2 °C6 km/hNO16 km/h1.51007 hPa0.6 mm
02/12/2021 07:303.6 °C97 %3.2 °C6 km/hNO13 km/h3.61007 hPa0.6 mm
02/12/2021 07:103.6 °C96 %3.0 °C6 km/hNO13 km/h3.61007 hPa0.2 mm
02/12/2021 07:003.7 °C96 %3.1 °C5 km/hNO13 km/h3.71006 hPa0.0 mm
02/12/2021 06:403.8 °C96 %3.2 °C4 km/hNO15 km/h3.81006 hPa0.0 mm
02/12/2021 06:303.9 °C96 %3.3 °C4 km/hONO11 km/h3.91006 hPa0.0 mm
02/12/2021 06:104.0 °C96 %3.4 °C4 km/hO10 km/h4.01006 hPa0.0 mm
02/12/2021 06:004.1 °C96 %3.5 °C4 km/hONO10 km/h4.11006 hPa0.0 mm
02/12/2021 05:404.2 °C96 %3.6 °C5 km/hONO8 km/h4.21006 hPa0.0 mm
02/12/2021 05:304.2 °C96 %3.6 °C6 km/hNO13 km/h4.21006 hPa0.0 mm
02/12/2021 05:104.3 °C96 %3.8 °C6 km/hNO13 km/h4.31006 hPa0.0 mm
02/12/2021 05:004.4 °C96 %3.9 °C7 km/hNO18 km/h2.41006 hPa0.0 mm
02/12/2021 04:404.5 °C96 %3.9 °C7 km/hNO15 km/h4.51006 hPa0.0 mm
02/12/2021 04:304.6 °C96 %4.0 °C8 km/hNO15 km/h4.61006 hPa0.0 mm
02/12/2021 04:104.7 °C95 %4.0 °C8 km/hO15 km/h2.61006 hPa0.0 mm
02/12/2021 04:004.8 °C95 %4.0 °C7 km/hONO15 km/h2.71005 hPa0.0 mm
02/12/2021 03:404.8 °C96 %4.2 °C7 km/hO15 km/h2.91006 hPa0.0 mm
02/12/2021 03:304.8 °C95 %4.1 °C6 km/hO13 km/h4.81005 hPa0.0 mm
02/12/2021 03:104.8 °C95 %4.1 °C6 km/hO16 km/h4.81005 hPa0.0 mm
02/12/2021 03:004.8 °C95 %4.1 °C5 km/hOSO13 km/h4.81005 hPa0.0 mm
02/12/2021 02:404.8 °C95 %4.1 °C5 km/hOSO13 km/h4.81005 hPa0.0 mm
02/12/2021 02:304.8 °C95 %4.1 °C4 km/hOSO10 km/h4.81005 hPa0.0 mm
02/12/2021 02:104.9 °C96 %4.4 °C4 km/hSO11 km/h4.91005 hPa0.0 mm
02/12/2021 02:004.8 °C96 %4.2 °C4 km/hSO11 km/h4.81005 hPa0.0 mm
02/12/2021 01:404.7 °C96 %4.1 °C5 km/hSO11 km/h4.71005 hPa0.0 mm
02/12/2021 01:304.5 °C95 %3.8 °C6 km/hSSO6 km/h4.51006 hPa0.0 mm
02/12/2021 01:104.8 °C95 %4.1 °C6 km/hSO10 km/h4.81005 hPa0.0 mm
02/12/2021 00:305.2 °C95 %4.4 °C6 km/hOSO15 km/h5.21005 hPa6.6 mm
02/12/2021 00:105.2 °C95 %4.5 °C6 km/hSO11 km/h5.21005 hPa6.6 mm
02/12/2021 00:005.3 °C95 %4.6 °C5 km/hSO15 km/h5.31006 hPa6.6 mm


Minima :

Température : 3.4 °C
Humidité : 79 %
Point de rosée : 1.6 °C
Vent moyen : 4 km/h
Windchill : 0.3
Pression atm. : 1005 hPa
Maxima :

Température : 5.3 °C
Humidité : 97 %
Point de rosée : 4.6 °C
Vent moyen : 16 km/h
Windchill : 5.3
Pression atm. : 1012 hPa
Rafales max : 29 km/h
Cumul de pluie sur 24H : 6.6 mm

LYs SAINT GEORGES est une commune du département Indre (36).
La station météorologique du réseau de l'association la plus proche de Lys-Saint-Georges est celle de Etrechet



Icône Facebook Association Météo Centre Icône Twitter Association Météo Centre Icône Chaîne Youtube Association Météo Centre Icône contact Association Météo Centre Icône Insta Association Météo Centre